createdAt,value
2023-11-30T00:04:54.310Z,33.88
2023-11-30T00:09:56.368Z,33.75
2023-11-30T00:14:58.681Z,33.88
2023-11-30T00:20:00.860Z,33.93
2023-11-30T00:25:03.030Z,33.88
2023-11-30T00:30:05.710Z,33.79
2023-11-30T00:35:08.072Z,33.87
2023-11-30T00:40:10.791Z,34.01
2023-11-30T00:45:12.940Z,34.03
2023-11-30T00:50:15.281Z,33.95
2023-11-30T00:55:17.366Z,33.86
2023-11-30T01:00:19.738Z,34.09
2023-11-30T01:05:21.810Z,33.95
2023-11-30T01:10:23.859Z,33.89
2023-11-30T01:15:25.973Z,33.85
2023-11-30T01:20:28.273Z,33.92
2023-11-30T01:25:30.258Z,33.91
2023-11-30T01:30:32.414Z,33.84
2023-11-30T01:35:35.544Z,33.99
2023-11-30T01:40:38.792Z,33.92
2023-11-30T01:45:41.015Z,33.81
2023-11-30T01:50:44.736Z,33.90
2023-11-30T01:55:47.029Z,33.92
2023-11-30T02:00:49.606Z,34.26
2023-11-30T02:05:52.909Z,34.06
2023-11-30T02:10:55.031Z,34.10
2023-11-30T02:15:57.258Z,33.96
2023-11-30T02:20:59.494Z,33.96
2023-11-30T02:26:01.735Z,33.97
2023-11-30T02:31:04.109Z,34.13
2023-11-30T02:36:06.723Z,33.95
2023-11-30T02:41:09.370Z,34.10
2023-11-30T02:46:12.708Z,34.03
2023-11-30T02:51:14.874Z,34.03
2023-11-30T02:56:17.228Z,34.16
2023-11-30T03:01:19.420Z,34.18
2023-11-30T03:06:22.114Z,33.99
2023-11-30T03:11:24.353Z,34.23
2023-11-30T03:16:27.695Z,34.13
2023-11-30T03:21:30.953Z,34.27
2023-11-30T03:26:34.031Z,33.98
2023-11-30T03:31:39.512Z,33.99
2023-11-30T03:36:42.900Z,33.90
2023-11-30T03:41:45.084Z,34.00
2023-11-30T03:46:47.885Z,34.00
2023-11-30T03:51:50.075Z,34.15
2023-11-30T03:56:52.187Z,34.06
2023-11-30T04:01:55.748Z,33.93
2023-11-30T04:06:57.924Z,33.93
2023-11-30T04:12:01.259Z,33.84
2023-11-30T04:17:04.735Z,34.04
2023-11-30T04:22:07.146Z,34.11
2023-11-30T04:27:09.431Z,34.33
2023-11-30T04:32:11.515Z,33.85
2023-11-30T04:37:13.766Z,34.21
2023-11-30T04:42:16.100Z,33.91
2023-11-30T04:47:18.306Z,33.73
2023-11-30T04:52:21.127Z,33.82
2023-11-30T04:57:23.231Z,33.76
2023-11-30T05:02:25.714Z,33.84
2023-11-30T05:07:27.768Z,33.77
2023-11-30T05:12:29.904Z,33.87
2023-11-30T05:17:32.162Z,33.94
2023-11-30T05:22:34.269Z,33.71
2023-11-30T05:27:36.370Z,33.87
2023-11-30T05:32:38.563Z,33.85
2023-11-30T05:37:40.973Z,33.90
2023-11-30T05:42:43.606Z,34.14
2023-11-30T05:47:45.750Z,34.00
2023-11-30T05:52:48.575Z,33.99
2023-11-30T05:57:50.598Z,34.09
2023-11-30T06:02:52.795Z,35.05
2023-11-30T06:07:54.837Z,35.90
2023-11-30T06:12:56.915Z,35.94
2023-11-30T06:17:59.034Z,35.72
2023-11-30T06:23:01.229Z,35.76
2023-11-30T06:28:03.340Z,35.84
2023-11-30T06:33:05.596Z,36.82
2023-11-30T06:38:08.008Z,37.56
2023-11-30T06:43:10.722Z,37.53
2023-11-30T06:48:12.901Z,37.83
2023-11-30T06:53:14.999Z,37.71
2023-11-30T06:58:17.066Z,37.47
2023-11-30T07:03:19.376Z,37.30
2023-11-30T07:08:21.558Z,37.21
2023-11-30T07:13:23.654Z,37.02
2023-11-30T07:18:25.869Z,36.82
2023-11-30T07:23:27.932Z,36.77
2023-11-30T07:28:30.190Z,36.34
2023-11-30T07:33:32.413Z,36.51
2023-11-30T07:38:34.576Z,36.38
2023-11-30T07:43:36.976Z,36.15
2023-11-30T07:48:39.061Z,35.94
2023-11-30T07:53:41.160Z,35.87
2023-11-30T07:58:45.353Z,35.83
2023-11-30T08:03:48.355Z,35.68
2023-11-30T08:08:50.575Z,35.45
2023-11-30T08:13:52.648Z,35.42
2023-11-30T08:18:54.794Z,35.47
2023-11-30T08:23:57.107Z,35.29
2023-11-30T08:28:59.207Z,35.40
2023-11-30T08:34:01.453Z,35.21
2023-11-30T08:39:04.882Z,35.21
2023-11-30T08:44:06.994Z,34.87
2023-11-30T08:49:11.629Z,34.91
2023-11-30T08:54:13.581Z,34.91
2023-11-30T08:59:15.730Z,35.13
2023-11-30T09:04:18.072Z,35.20
2023-11-30T09:09:20.540Z,35.02
2023-11-30T09:14:23.066Z,34.92
2023-11-30T09:19:25.566Z,34.93
2023-11-30T09:24:27.621Z,34.87
2023-11-30T09:29:30.223Z,34.77
2023-11-30T09:34:32.194Z,34.80
2023-11-30T09:39:34.343Z,34.72
2023-11-30T09:44:36.465Z,34.90
2023-11-30T09:49:39.481Z,34.96
2023-11-30T09:54:41.575Z,34.75
2023-11-30T09:59:44.035Z,34.67
2023-11-30T10:04:49.708Z,32.82
2023-11-30T10:09:51.882Z,32.14
2023-11-30T10:15:01.446Z,31.79
2023-11-30T10:20:07.532Z,31.21
2023-11-30T10:25:10.212Z,30.88
2023-11-30T10:30:13.955Z,30.80
2023-11-30T10:35:18.143Z,31.18
2023-11-30T10:40:22.124Z,30.60
2023-11-30T10:45:27.436Z,30.69
2023-11-30T10:50:33.104Z,30.33
2023-11-30T10:55:35.450Z,30.17
2023-11-30T11:00:37.806Z,30.13
2023-11-30T11:05:45.604Z,30.36
2023-11-30T11:10:49.137Z,29.94
2023-11-30T11:16:01.560Z,30.01
2023-11-30T11:21:03.954Z,29.88
2023-11-30T11:26:06.953Z,29.62
2023-11-30T11:31:09.247Z,29.16
2023-11-30T11:36:14.741Z,29.30
2023-11-30T11:41:19.552Z,29.75
2023-11-30T11:46:21.840Z,29.17
2023-11-30T11:51:25.795Z,29.36
2023-11-30T11:56:28.507Z,29.56
2023-11-30T12:01:39.122Z,29.75
2023-11-30T12:06:41.449Z,30.00
2023-11-30T12:11:43.646Z,29.90
2023-11-30T12:16:45.871Z,29.74
2023-11-30T12:21:48.421Z,29.75
2023-11-30T12:26:51.029Z,29.56
2023-11-30T12:31:54.789Z,29.79
2023-11-30T12:36:58.570Z,29.73
2023-11-30T12:42:02.773Z,29.84
2023-11-30T12:47:06.013Z,30.20
2023-11-30T12:52:08.376Z,30.58
2023-11-30T12:57:10.695Z,30.61
2023-11-30T13:02:13.227Z,30.86
2023-11-30T13:07:15.728Z,31.08
2023-11-30T13:12:17.964Z,31.12
2023-11-30T13:17:20.276Z,31.27
2023-11-30T13:22:22.969Z,31.16
2023-11-30T13:27:25.356Z,31.27
2023-11-30T13:32:36.502Z,31.26
2023-11-30T13:37:39.596Z,31.30
2023-11-30T13:42:41.971Z,31.36
2023-11-30T13:47:49.031Z,31.43
2023-11-30T13:52:51.353Z,31.44
2023-11-30T13:57:53.571Z,31.44
2023-11-30T14:02:55.901Z,31.43
2023-11-30T14:07:58.597Z,31.50
2023-11-30T14:13:01.103Z,31.62
2023-11-30T14:18:03.445Z,31.58
2023-11-30T14:23:05.713Z,31.52
2023-11-30T14:28:12.530Z,31.56
2023-11-30T14:33:15.733Z,31.75
2023-11-30T14:38:17.983Z,31.74
2023-11-30T14:43:20.266Z,31.68
2023-11-30T14:48:24.236Z,31.77
2023-11-30T14:53:26.453Z,31.59
2023-11-30T14:58:28.870Z,31.66
2023-11-30T15:03:32.687Z,31.75
2023-11-30T15:08:36.382Z,31.81
2023-11-30T15:13:38.569Z,31.78
2023-11-30T15:18:40.830Z,31.75
2023-11-30T15:23:43.080Z,31.72
2023-11-30T15:28:45.459Z,31.79
2023-11-30T15:33:47.702Z,31.68
2023-11-30T15:38:49.944Z,31.85
2023-11-30T15:43:52.684Z,31.76
2023-11-30T15:48:55.184Z,31.76
2023-11-30T15:53:57.430Z,31.76
2023-11-30T15:58:59.677Z,31.88
2023-11-30T16:04:01.932Z,31.75
2023-11-30T16:09:04.432Z,31.71
2023-11-30T16:14:06.555Z,31.78
2023-11-30T16:19:09.040Z,31.71
2023-11-30T16:24:11.968Z,31.97
2023-11-30T16:29:14.353Z,31.84
2023-11-30T16:34:19.716Z,32.05
2023-11-30T16:39:24.230Z,31.80
2023-11-30T16:44:28.069Z,32.05
2023-11-30T16:49:30.663Z,32.00
2023-11-30T16:54:33.434Z,32.12
2023-11-30T16:59:35.908Z,32.73
2023-11-30T17:04:38.175Z,33.03
2023-11-30T17:09:40.711Z,32.97
2023-11-30T17:14:43.354Z,33.08
2023-11-30T17:19:45.559Z,33.18
2023-11-30T17:24:47.853Z,33.22
2023-11-30T17:29:50.380Z,33.04
2023-11-30T17:34:53.227Z,33.12
2023-11-30T17:39:55.731Z,33.18
2023-11-30T17:44:58.016Z,33.20
2023-11-30T17:50:02.291Z,33.15
2023-11-30T17:55:06.243Z,33.30
2023-11-30T18:00:09.456Z,33.39
2023-11-30T18:05:14.685Z,33.48
2023-11-30T18:10:17.001Z,33.30
2023-11-30T18:15:19.277Z,33.37
2023-11-30T18:20:21.521Z,33.36
2023-11-30T18:25:24.113Z,33.39
2023-11-30T18:30:26.467Z,33.38
2023-11-30T18:35:28.721Z,33.41
2023-11-30T18:40:30.973Z,33.42
2023-11-30T18:45:33.227Z,33.48
2023-11-30T18:50:36.755Z,33.39
2023-11-30T18:55:39.009Z,33.24
2023-11-30T19:00:41.261Z,33.66
2023-11-30T19:05:43.728Z,33.73
2023-11-30T19:10:46.184Z,33.98
2023-11-30T19:15:48.666Z,33.90
2023-11-30T19:20:50.932Z,33.88
2023-11-30T19:25:53.304Z,33.71
2023-11-30T19:30:55.563Z,33.80
2023-11-30T19:35:58.093Z,33.82
2023-11-30T19:41:01.843Z,33.67
2023-11-30T19:46:04.328Z,33.69
2023-11-30T19:51:06.978Z,33.78
2023-11-30T19:56:18.301Z,33.73
2023-11-30T20:01:21.961Z,33.78
2023-11-30T20:06:24.405Z,33.82
2023-11-30T20:11:26.616Z,33.72
2023-11-30T20:16:28.848Z,33.67
2023-11-30T20:21:31.052Z,33.80
2023-11-30T20:26:33.232Z,33.59
2023-11-30T20:31:35.489Z,33.81
2023-11-30T20:36:37.801Z,33.81
2023-11-30T20:41:39.982Z,33.81
2023-11-30T20:46:42.466Z,33.74
2023-11-30T20:51:44.991Z,33.92
2023-11-30T20:56:48.757Z,33.87
2023-11-30T21:01:51.109Z,33.84
2023-11-30T21:06:53.522Z,33.96
2023-11-30T21:11:55.917Z,33.93
2023-11-30T21:16:58.115Z,33.85
2023-11-30T21:22:00.343Z,33.78
2023-11-30T21:27:02.578Z,33.90
2023-11-30T21:32:05.110Z,33.88
2023-11-30T21:37:07.665Z,33.85
2023-11-30T21:42:11.735Z,33.76
2023-11-30T21:47:13.980Z,33.83
2023-11-30T21:52:16.689Z,34.03
2023-11-30T21:57:18.864Z,34.21
2023-11-30T22:02:21.217Z,34.12
2023-11-30T22:07:23.494Z,34.25
2023-11-30T22:12:25.654Z,34.38
2023-11-30T22:17:28.722Z,34.49
2023-11-30T22:22:30.897Z,34.36
2023-11-30T22:27:33.008Z,34.40
2023-11-30T22:32:35.501Z,34.61
2023-11-30T22:37:37.872Z,34.49
2023-11-30T22:42:40.163Z,34.72
2023-11-30T22:47:42.511Z,34.74
2023-11-30T22:52:44.836Z,34.82
2023-11-30T22:57:47.202Z,35.22
2023-11-30T23:02:49.679Z,35.30
2023-11-30T23:07:52.105Z,35.12
2023-11-30T23:12:55.453Z,35.56
2023-11-30T23:17:57.648Z,35.44
2023-11-30T23:22:59.859Z,35.57
2023-11-30T23:28:02.338Z,35.54
2023-11-30T23:33:07.868Z,35.57
2023-11-30T23:38:10.268Z,35.50
2023-11-30T23:43:12.590Z,35.65
2023-11-30T23:48:14.861Z,35.54
2023-11-30T23:53:17.093Z,35.43
2023-11-30T23:58:19.260Z,35.63
